Southwick, United Kingdom
Current Conditions -  °F | °C
As of 4:20 PM on Thursday 23 Oct 2014 (Local Time) from EGGD Reporting Station
Drizzle Drizzle  
Wind Chill: 57°   Ceiling: 600
Heat Index: 57°   Visibility: 3mi
Dew Point: 55°   Wind: 10mph
Humidity: 94%   Direction: 210°SSW
Pressure: 30.03"   Gusts: NA
Location:  51.3°N, 2.23°W
Report Text: EGGD 231520Z 21009KT 170V230 4800 -DZ FEW005 BKN006 14/13 Q1017
Loading
Personal Weather Stations






























Interactive Weather Map
Tropical Storm Tracking
New forecast layout! Learn more

10-Day Weather Forecast

Advertisements
Track Severe Weather on mobile